createdAt,value
2019-04-26T00:00:56.984Z,4.80
2019-04-26T00:03:26.825Z,5.03
2019-04-26T00:05:55.302Z,4.60
2019-04-26T00:08:23.504Z,5.03
2019-04-26T00:11:08.272Z,5.23
2019-04-26T00:13:54.752Z,5.13
2019-04-26T00:16:24.600Z,5.40
2019-04-26T00:18:52.781Z,5.00
2019-04-26T00:21:20.980Z,5.00
2019-04-26T00:23:49.833Z,5.00
2019-04-26T00:26:18.283Z,5.30
2019-04-26T00:28:46.493Z,5.17
2019-04-26T00:31:15.115Z,4.87
2019-04-26T00:33:43.372Z,5.00
2019-04-26T00:36:12.363Z,5.67
2019-04-26T00:38:41.709Z,5.73
2019-04-26T00:41:09.952Z,6.17
2019-04-26T00:43:38.169Z,5.80
2019-04-26T00:46:06.737Z,5.80
2019-04-26T00:48:35.714Z,5.30
2019-04-26T00:51:04.189Z,6.33
2019-04-26T00:53:33.977Z,6.40
2019-04-26T00:56:03.162Z,5.60
2019-04-26T00:58:33.653Z,6.20
2019-04-26T01:01:02.046Z,6.37
2019-04-26T01:03:30.216Z,6.07
2019-04-26T01:06:00.455Z,6.40
2019-04-26T01:08:28.852Z,6.47
2019-04-26T01:10:57.085Z,6.30
2019-04-26T01:13:26.108Z,6.40
2019-04-26T01:15:54.437Z,6.47
2019-04-26T01:18:22.653Z,6.83
2019-04-26T01:20:52.393Z,6.70
2019-04-26T01:23:21.009Z,6.80
2019-04-26T01:25:53.461Z,6.73
2019-04-26T01:28:23.423Z,7.17
2019-04-26T01:30:52.160Z,6.90
2019-04-26T01:33:20.441Z,7.00
2019-04-26T01:35:48.616Z,6.80
2019-04-26T01:38:16.832Z,7.10
2019-04-26T01:40:46.651Z,6.50
2019-04-26T01:43:16.769Z,7.03
2019-04-26T01:45:48.157Z,6.90
2019-04-26T01:48:35.937Z,7.43
2019-04-26T01:51:04.406Z,7.10
2019-04-26T01:53:33.040Z,6.83
2019-04-26T01:56:01.232Z,7.37
2019-04-26T01:58:29.441Z,7.47
2019-04-26T02:01:05.508Z,7.77
2019-04-26T02:03:33.678Z,7.53
2019-04-26T02:06:01.889Z,7.83
2019-04-26T02:08:30.378Z,7.63
2019-04-26T02:10:58.656Z,7.90
2019-04-26T02:13:26.885Z,8.17
2019-04-26T02:15:55.105Z,7.30
2019-04-26T02:18:24.057Z,7.77
2019-04-26T02:20:55.994Z,8.47
2019-04-26T02:23:38.147Z,7.77
2019-04-26T02:26:25.554Z,8.43
2019-04-26T02:28:55.569Z,8.03
2019-04-26T02:31:26.646Z,8.67
2019-04-26T02:33:53.977Z,8.30
2019-04-26T02:36:22.529Z,9.13
2019-04-26T02:38:52.414Z,9.17
2019-04-26T02:41:20.590Z,9.27
2019-04-26T02:43:50.348Z,8.40
2019-04-26T02:46:21.696Z,9.30
2019-04-26T02:48:58.987Z,9.60
2019-04-26T02:51:30.158Z,9.17
2019-04-26T02:54:06.109Z,9.17
2019-04-26T02:56:37.639Z,9.40
2019-04-26T02:59:07.119Z,10.07
2019-04-26T03:01:36.645Z,10.43
2019-04-26T03:04:05.271Z,10.73
2019-04-26T03:06:34.910Z,10.23
2019-04-26T03:09:06.735Z,10.40
2019-04-26T03:11:37.108Z,10.47
2019-04-26T03:14:11.020Z,11.73
2019-04-26T03:16:48.061Z,10.77
2019-04-26T03:19:22.079Z,11.30
2019-04-26T03:21:54.771Z,11.10
2019-04-26T03:24:24.590Z,11.53
2019-04-26T03:27:00.411Z,11.10
2019-04-26T03:29:37.470Z,12.40
2019-04-26T03:32:25.384Z,11.93
2019-04-26T03:34:56.774Z,11.03
2019-04-26T03:37:38.304Z,11.50
2019-04-26T03:40:24.745Z,10.43
2019-04-26T03:42:54.505Z,11.70
2019-04-26T03:45:24.220Z,10.80
2019-04-26T03:47:53.994Z,10.93
2019-04-26T03:50:35.270Z,12.30
2019-04-26T03:53:08.956Z,12.13
2019-04-26T03:55:41.651Z,11.17
2019-04-26T03:58:25.321Z,11.97
2019-04-26T04:00:55.837Z,12.10
2019-04-26T04:03:46.183Z,11.60
2019-04-26T04:06:18.202Z,13.30
2019-04-26T04:08:50.569Z,12.33
2019-04-26T04:11:20.494Z,12.00
2019-04-26T04:13:53.543Z,12.70
2019-04-26T04:16:23.778Z,13.30
2019-04-26T04:18:56.212Z,12.77
2019-04-26T04:21:30.463Z,12.70
2019-04-26T04:24:00.179Z,13.30
2019-04-26T04:26:35.861Z,15.40
2019-04-26T04:29:20.260Z,20.37
2019-04-26T04:31:56.089Z,25.63
2019-04-26T04:34:28.647Z,29.07
2019-04-26T04:36:58.639Z,27.47
2019-04-26T04:39:31.311Z,27.13
2019-04-26T04:42:02.722Z,27.03
2019-04-26T04:44:37.165Z,24.30
2019-04-26T04:47:25.486Z,22.40
2019-04-26T04:50:02.741Z,21.90
2019-04-26T04:52:35.445Z,19.70
2019-04-26T04:55:14.069Z,19.50
2019-04-26T04:58:00.249Z,19.07
2019-04-26T05:00:40.170Z,17.47
2019-04-26T05:03:27.068Z,16.27
2019-04-26T05:06:07.346Z,15.77
2019-04-26T05:08:50.898Z,15.83
2019-04-26T05:11:37.581Z,14.90
2019-04-26T05:14:19.503Z,13.90
2019-04-26T05:16:52.603Z,14.53
2019-04-26T05:19:38.858Z,14.47
2019-04-26T05:22:23.799Z,14.50
2019-04-26T05:24:53.543Z,13.40
2019-04-26T05:27:42.574Z,14.27
2019-04-26T05:30:17.063Z,14.03
2019-04-26T05:32:47.296Z,13.80
2019-04-26T05:35:25.813Z,14.60
2019-04-26T05:38:17.956Z,13.73
2019-04-26T05:40:38.998Z,14.80
2019-04-26T05:43:10.400Z,14.23
2019-04-26T05:45:47.733Z,13.97
2019-04-26T05:48:33.911Z,14.33
2019-04-26T05:51:20.135Z,15.23
2019-04-26T05:54:20.505Z,12.70
2019-04-26T05:57:19.433Z,14.50
2019-04-26T05:59:50.444Z,13.70
2019-04-26T06:02:43.321Z,14.10
2019-04-26T06:05:14.709Z,14.03
2019-04-26T06:08:03.015Z,13.90
2019-04-26T06:10:53.169Z,13.73
2019-04-26T06:13:46.049Z,14.27
2019-04-26T06:16:20.081Z,13.17
2019-04-26T06:19:15.581Z,15.40
2019-04-26T06:21:48.225Z,14.30
2019-04-26T06:24:24.156Z,13.83
2019-04-26T06:27:12.114Z,14.63
2019-04-26T06:29:32.875Z,14.20
2019-04-26T06:32:05.264Z,14.00
2019-04-26T06:34:51.765Z,13.33
2019-04-26T06:37:24.304Z,14.30
2019-04-26T06:40:10.621Z,13.90
2019-04-26T06:42:58.290Z,13.33
2019-04-26T06:45:38.316Z,14.40
2019-04-26T06:48:21.505Z,14.10
2019-04-26T06:50:51.293Z,13.50
2019-04-26T06:53:23.923Z,12.93
2019-04-26T06:55:55.330Z,13.73
2019-04-26T06:58:25.044Z,13.63
2019-04-26T07:01:11.315Z,13.17
2019-04-26T07:03:58.321Z,13.57
2019-04-26T07:06:34.888Z,12.53
2019-04-26T07:09:01.158Z,12.43
2019-04-26T07:11:38.443Z,12.50
2019-04-26T07:14:11.537Z,12.50
2019-04-26T07:16:50.412Z,12.17
2019-04-26T07:19:30.546Z,12.47
2019-04-26T07:22:18.358Z,13.17
2019-04-26T07:24:55.441Z,12.73
2019-04-26T07:27:25.217Z,12.70
2019-04-26T07:29:57.424Z,12.83
2019-04-26T07:32:33.028Z,12.13
2019-04-26T07:35:07.265Z,12.50
2019-04-26T07:37:53.856Z,11.53
2019-04-26T07:41:01.476Z,12.27
2019-04-26T07:43:49.387Z,12.23
2019-04-26T07:46:35.993Z,12.83
2019-04-26T07:49:22.325Z,13.43
2019-04-26T07:51:54.757Z,11.30
2019-04-26T07:54:24.487Z,12.73
2019-04-26T07:57:03.205Z,11.20
2019-04-26T07:59:42.900Z,11.60
2019-04-26T08:02:17.169Z,11.73
2019-04-26T08:04:47.649Z,11.50
2019-04-26T08:07:26.177Z,11.27
2019-04-26T08:09:59.931Z,11.20
2019-04-26T08:12:27.378Z,10.80
2019-04-26T08:14:58.742Z,10.40
2019-04-26T08:17:30.133Z,9.60
2019-04-26T08:20:11.439Z,10.10
2019-04-26T08:22:42.096Z,10.00
2019-04-26T08:25:10.748Z,10.80
2019-04-26T08:27:39.809Z,9.80
2019-04-26T08:30:15.734Z,10.73
2019-04-26T08:32:46.725Z,11.23
2019-04-26T08:35:21.321Z,10.13
2019-04-26T08:37:52.989Z,10.37
2019-04-26T08:40:30.082Z,10.10
2019-04-26T08:42:57.440Z,10.53
2019-04-26T08:45:36.670Z,9.77
2019-04-26T08:48:13.801Z,9.70
2019-04-26T08:50:45.929Z,10.00
2019-04-26T08:53:14.667Z,9.30
2019-04-26T08:55:44.556Z,8.90
2019-04-26T08:58:14.611Z,9.77
2019-04-26T09:00:52.040Z,9.80
2019-04-26T09:03:26.116Z,9.50
2019-04-26T09:05:59.204Z,9.43
2019-04-26T09:08:28.965Z,10.33
2019-04-26T09:10:58.807Z,9.47
2019-04-26T09:13:28.617Z,9.30
2019-04-26T09:16:06.947Z,10.00
2019-04-26T09:18:43.143Z,9.90
2019-04-26T09:21:05.232Z,10.37
2019-04-26T09:23:52.031Z,10.30
2019-04-26T09:26:38.402Z,9.73
2019-04-26T09:29:08.221Z,10.17
2019-04-26T09:31:44.020Z,9.73
2019-04-26T09:34:14.216Z,9.93
2019-04-26T09:36:42.400Z,10.27
2019-04-26T09:39:12.177Z,9.87
2019-04-26T09:41:40.527Z,9.50
2019-04-26T09:44:10.352Z,9.70
2019-04-26T09:46:40.168Z,9.97
2019-04-26T09:49:28.275Z,10.10
2019-04-26T09:51:56.500Z,10.27
2019-04-26T09:54:24.713Z,9.90
2019-04-26T09:56:52.920Z,9.80
2019-04-26T09:59:21.109Z,9.77
2019-04-26T10:01:49.276Z,10.40
2019-04-26T10:04:17.508Z,10.27
2019-04-26T10:06:45.727Z,9.77
2019-04-26T10:09:17.216Z,10.30
2019-04-26T10:11:47.750Z,10.27
2019-04-26T10:14:17.564Z,9.30
2019-04-26T10:16:47.417Z,9.93
2019-04-26T10:19:16.593Z,9.73
2019-04-26T10:21:44.776Z,9.67
2019-04-26T10:24:12.984Z,10.30
2019-04-26T10:26:41.672Z,9.90
2019-04-26T10:29:09.877Z,10.57
2019-04-26T10:31:38.092Z,10.40
2019-04-26T10:34:07.671Z,10.90
2019-04-26T10:36:36.232Z,11.17
2019-04-26T10:39:06.263Z,9.50
2019-04-26T10:41:34.459Z,11.20
2019-04-26T10:44:02.660Z,11.60
2019-04-26T10:46:30.844Z,11.07
2019-04-26T10:49:08.541Z,10.00
2019-04-26T10:51:33.537Z,10.23
2019-04-26T10:54:09.256Z,10.60
2019-04-26T10:56:39.103Z,9.80
2019-04-26T10:59:09.889Z,10.20
2019-04-26T11:01:38.992Z,10.37
2019-04-26T11:04:09.524Z,10.00
2019-04-26T11:06:37.695Z,9.53
2019-04-26T11:09:07.457Z,10.00
2019-04-26T11:11:37.569Z,9.00
2019-04-26T11:14:05.775Z,8.90
2019-04-26T11:16:37.264Z,9.77
2019-04-26T11:19:04.072Z,9.03
2019-04-26T11:21:32.357Z,9.03
2019-04-26T11:24:00.574Z,9.70
2019-04-26T11:26:31.038Z,8.93
2019-04-26T11:28:58.700Z,8.83
2019-04-26T11:31:27.765Z,9.00
2019-04-26T11:34:05.185Z,8.70
2019-04-26T11:36:26.731Z,8.40
2019-04-26T11:38:55.792Z,7.73
2019-04-26T11:41:24.103Z,7.77
2019-04-26T11:43:52.967Z,7.40
2019-04-26T11:46:29.013Z,7.60
2019-04-26T11:48:59.180Z,7.50
2019-04-26T11:51:27.447Z,7.30
2019-04-26T11:53:53.462Z,6.93
2019-04-26T11:56:21.731Z,6.53
2019-04-26T11:58:52.433Z,6.50
2019-04-26T12:01:21.488Z,5.80
2019-04-26T12:04:08.173Z,7.27
2019-04-26T12:06:47.204Z,6.13
2019-04-26T12:09:17.101Z,6.33
2019-04-26T12:11:49.585Z,6.43
2019-04-26T12:14:20.414Z,5.63
2019-04-26T12:16:49.392Z,6.13
2019-04-26T12:19:18.204Z,5.67
2019-04-26T12:21:44.933Z,6.00
2019-04-26T12:24:13.104Z,6.80
2019-04-26T12:26:43.123Z,7.10
2019-04-26T12:29:14.697Z,7.40
2019-04-26T12:31:41.155Z,6.57
2019-04-26T12:34:09.353Z,7.67
2019-04-26T12:36:37.524Z,6.73
2019-04-26T12:39:07.551Z,6.70
2019-04-26T12:41:40.243Z,6.77
2019-04-26T12:44:05.888Z,6.67
2019-04-26T12:46:35.749Z,6.80
2019-04-26T12:49:03.916Z,5.80
2019-04-26T12:51:32.104Z,5.70
2019-04-26T12:54:03.757Z,6.47
2019-04-26T12:56:31.234Z,5.80
2019-04-26T12:59:00.105Z,5.40
2019-04-26T13:01:28.313Z,5.63
2019-04-26T13:04:07.088Z,5.25
2019-04-26T13:06:37.193Z,5.50
2019-04-26T13:09:12.836Z,5.33
2019-04-26T13:11:48.781Z,5.27
2019-04-26T13:14:16.147Z,5.50
2019-04-26T13:16:48.985Z,5.27
2019-04-26T13:19:19.907Z,4.80
2019-04-26T13:21:47.064Z,4.80
2019-04-26T13:24:15.252Z,4.90
2019-04-26T13:26:43.459Z,5.10
2019-04-26T13:29:11.668Z,3.77
2019-04-26T13:31:39.865Z,3.80
2019-04-26T13:34:08.099Z,4.50
2019-04-26T13:36:36.298Z,4.13
2019-04-26T13:39:06.803Z,3.73
2019-04-26T13:41:38.326Z,3.60
2019-04-26T13:44:05.894Z,3.40
2019-04-26T13:46:38.708Z,3.80
2019-04-26T13:49:14.214Z,3.80
2019-04-26T13:51:42.732Z,3.63
2019-04-26T13:54:10.899Z,3.47
2019-04-26T13:56:39.089Z,3.70
2019-04-26T13:59:07.301Z,2.97
2019-04-26T14:01:35.500Z,3.80
2019-04-26T14:04:06.889Z,3.10
2019-04-26T14:06:34.510Z,3.30
2019-04-26T14:09:03.048Z,3.53
2019-04-26T14:11:31.404Z,3.40
2019-04-26T14:14:00.479Z,3.30
2019-04-26T14:16:30.545Z,3.20
2019-04-26T14:18:58.753Z,3.27
2019-04-26T14:21:29.193Z,2.97
2019-04-26T14:24:19.736Z,2.60
2019-04-26T14:26:48.209Z,2.67
2019-04-26T14:29:16.481Z,3.17
2019-04-26T14:31:47.282Z,3.23
2019-04-26T14:34:14.626Z,2.67
2019-04-26T14:36:43.848Z,2.70
2019-04-26T14:39:14.888Z,3.13
2019-04-26T14:41:42.110Z,3.10
2019-04-26T14:44:15.866Z,3.10
2019-04-26T14:46:48.717Z,2.80
2019-04-26T14:49:10.096Z,2.70
2019-04-26T14:51:40.609Z,3.30
2019-04-26T14:54:11.403Z,2.63
2019-04-26T14:56:38.077Z,3.07
2019-04-26T14:59:08.339Z,3.00
2019-04-26T15:01:42.140Z,2.63
2019-04-26T15:04:29.197Z,3.00
2019-04-26T15:06:59.616Z,3.00
2019-04-26T15:09:33.301Z,3.13
2019-04-26T15:12:01.099Z,2.90
2019-04-26T15:14:27.738Z,2.90
2019-04-26T15:16:55.986Z,3.10
2019-04-26T15:19:24.197Z,3.00
2019-04-26T15:21:52.437Z,2.70
2019-04-26T15:24:20.686Z,3.00
2019-04-26T15:26:48.864Z,3.00
2019-04-26T15:29:21.248Z,2.73
2019-04-26T15:31:47.806Z,2.97
2019-04-26T15:34:19.257Z,2.80
2019-04-26T15:36:47.972Z,3.03
2019-04-26T15:39:21.283Z,2.90
2019-04-26T15:41:51.320Z,2.90
2019-04-26T15:44:28.247Z,2.70
2019-04-26T15:46:58.042Z,2.90
2019-04-26T15:49:44.219Z,2.60
2019-04-26T15:52:12.465Z,2.60
2019-04-26T15:54:42.368Z,2.40
2019-04-26T15:57:12.101Z,2.53
2019-04-26T15:59:40.583Z,2.50
2019-04-26T16:02:08.853Z,3.10
2019-04-26T16:04:37.036Z,2.80
2019-04-26T16:07:05.237Z,2.83
2019-04-26T16:09:33.511Z,3.00
2019-04-26T16:12:03.660Z,3.43
2019-04-26T16:14:36.590Z,3.20
2019-04-26T16:17:03.211Z,3.23
2019-04-26T16:19:31.437Z,3.10
2019-04-26T16:21:59.657Z,3.40
2019-04-26T16:24:28.921Z,2.90
2019-04-26T16:26:57.404Z,3.60
2019-04-26T16:29:42.536Z,3.10
2019-04-26T16:32:28.896Z,3.00
2019-04-26T16:34:57.100Z,3.20
2019-04-26T16:37:25.374Z,3.43
2019-04-26T16:39:53.578Z,2.70
2019-04-26T16:42:23.428Z,3.30
2019-04-26T16:44:53.129Z,3.00
2019-04-26T16:47:23.361Z,3.37
2019-04-26T16:49:52.319Z,2.83
2019-04-26T16:52:21.024Z,2.83
2019-04-26T16:54:49.300Z,3.43
2019-04-26T16:57:17.509Z,2.80
2019-04-26T16:59:51.027Z,3.70
2019-04-26T17:02:15.978Z,3.00
2019-04-26T17:04:45.467Z,3.23
2019-04-26T17:07:14.135Z,3.43
2019-04-26T17:09:59.847Z,3.37
2019-04-26T17:12:14.968Z,3.50
2019-04-26T17:14:47.522Z,3.20
2019-04-26T17:17:14.223Z,3.50
2019-04-26T17:19:43.221Z,3.40
2019-04-26T17:22:41.886Z,3.07
2019-04-26T17:25:10.051Z,3.00
2019-04-26T17:27:40.282Z,3.67
2019-04-26T17:30:10.049Z,3.73
2019-04-26T17:32:38.273Z,3.17
2019-04-26T17:35:07.605Z,3.20
2019-04-26T17:37:36.002Z,3.90
2019-04-26T17:40:04.594Z,3.40
2019-04-26T17:42:36.507Z,3.33
2019-04-26T17:45:06.757Z,3.40
2019-04-26T17:47:36.650Z,3.30
2019-04-26T17:50:06.266Z,3.60
2019-04-26T17:52:36.163Z,3.57
2019-04-26T17:55:07.750Z,3.80
2019-04-26T17:57:36.953Z,4.07
2019-04-26T18:00:11.529Z,3.53
2019-04-26T18:02:44.665Z,3.57
2019-04-26T18:05:10.832Z,3.57
2019-04-26T18:07:45.897Z,3.10
2019-04-26T18:10:11.358Z,3.90
2019-04-26T18:12:40.991Z,3.53
2019-04-26T18:15:13.856Z,3.53
2019-04-26T18:17:44.214Z,3.50
2019-04-26T18:20:23.560Z,4.00
2019-04-26T18:23:09.757Z,4.03
2019-04-26T18:25:35.313Z,4.63
2019-04-26T18:28:04.661Z,4.50
2019-04-26T18:30:33.087Z,4.00
2019-04-26T18:33:02.828Z,3.80
2019-04-26T18:35:31.174Z,3.83
2019-04-26T18:37:59.351Z,3.50
2019-04-26T18:40:27.569Z,3.80
2019-04-26T18:42:55.739Z,4.10
2019-04-26T18:45:29.017Z,3.70
2019-04-26T18:47:56.313Z,3.70
2019-04-26T18:50:23.812Z,3.83
2019-04-26T18:52:59.847Z,3.70
2019-04-26T18:55:30.366Z,3.80
2019-04-26T18:58:03.646Z,3.50
2019-04-26T19:00:30.175Z,3.47
2019-04-26T19:02:59.996Z,4.00
2019-04-26T19:05:30.240Z,4.30
2019-04-26T19:07:58.357Z,4.30
2019-04-26T19:10:29.268Z,4.00
2019-04-26T19:13:00.022Z,3.50
2019-04-26T19:15:29.616Z,3.80
2019-04-26T19:18:04.286Z,3.90
2019-04-26T19:20:42.592Z,3.97
2019-04-26T19:23:12.172Z,3.87
2019-04-26T19:25:41.274Z,3.80
2019-04-26T19:28:11.967Z,3.70
2019-04-26T19:30:48.968Z,3.90
2019-04-26T19:33:16.526Z,3.60
2019-04-26T19:35:44.025Z,4.30
2019-04-26T19:38:11.961Z,4.20
2019-04-26T19:40:46.458Z,4.00
2019-04-26T19:43:09.972Z,4.13
2019-04-26T19:45:45.739Z,3.87
2019-04-26T19:48:19.192Z,4.27
2019-04-26T19:50:57.834Z,4.23
2019-04-26T19:53:27.714Z,4.23
2019-04-26T19:55:57.532Z,3.73
2019-04-26T19:58:27.377Z,4.00
2019-04-26T20:00:55.661Z,3.93
2019-04-26T20:03:23.830Z,4.57
2019-04-26T20:05:52.928Z,4.23
2019-04-26T20:08:21.538Z,4.93
2019-04-26T20:10:52.069Z,4.80
2019-04-26T20:13:22.046Z,4.57
2019-04-26T20:15:51.575Z,5.00
2019-04-26T20:18:21.399Z,4.90
2019-04-26T20:20:49.736Z,5.80
2019-04-26T20:23:19.437Z,6.10
2019-04-26T20:25:47.990Z,5.90
2019-04-26T20:28:16.168Z,5.70
2019-04-26T20:30:57.872Z,5.90
2019-04-26T20:33:26.668Z,5.57
2019-04-26T20:35:57.390Z,5.83
2019-04-26T20:38:24.696Z,6.30
2019-04-26T20:40:53.500Z,6.30
2019-04-26T20:43:26.370Z,5.87
2019-04-26T20:46:10.437Z,5.90
2019-04-26T20:48:25.332Z,5.97
2019-04-26T20:50:51.983Z,5.70
2019-04-26T20:53:21.668Z,6.37
2019-04-26T20:55:49.936Z,5.93
2019-04-26T20:58:18.112Z,6.93
2019-04-26T21:00:54.148Z,6.13
2019-04-26T21:03:23.696Z,6.33
2019-04-26T21:05:46.715Z,6.00
2019-04-26T21:08:19.555Z,6.07
2019-04-26T21:10:45.861Z,5.50
2019-04-26T21:13:14.029Z,6.47
2019-04-26T21:15:53.414Z,7.40
2019-04-26T21:18:12.517Z,6.03
2019-04-26T21:20:42.440Z,6.87
2019-04-26T21:23:13.171Z,6.60
2019-04-26T21:25:42.317Z,6.80
2019-04-26T21:28:12.151Z,7.80
2019-04-26T21:30:42.007Z,7.07
2019-04-26T21:33:17.782Z,7.73
2019-04-26T21:35:57.662Z,7.37
2019-04-26T21:38:30.793Z,7.37
2019-04-26T21:41:11.489Z,7.67
2019-04-26T21:43:38.311Z,7.40
2019-04-26T21:46:08.539Z,7.67
2019-04-26T21:48:37.341Z,8.10
2019-04-26T21:51:08.450Z,7.80
2019-04-26T21:53:38.222Z,8.20
2019-04-26T21:56:07.466Z,8.40
2019-04-26T21:58:35.764Z,9.30
2019-04-26T22:01:15.645Z,9.90
2019-04-26T22:03:47.359Z,10.17
2019-04-26T22:06:11.277Z,10.50
2019-04-26T22:08:43.751Z,12.37
2019-04-26T22:11:13.958Z,11.40
2019-04-26T22:13:59.705Z,11.07
2019-04-26T22:16:41.670Z,11.27
2019-04-26T22:19:17.288Z,13.57
2019-04-26T22:21:49.919Z,13.27
2019-04-26T22:24:33.663Z,15.30
2019-04-26T22:27:03.723Z,14.97
2019-04-26T22:29:33.223Z,15.03
2019-04-26T22:32:03.515Z,16.90
2019-04-26T22:34:31.560Z,17.20
2019-04-26T22:37:01.850Z,18.77
2019-04-26T22:39:32.736Z,19.67
2019-04-26T22:42:02.709Z,20.27
2019-04-26T22:44:34.666Z,22.63
2019-04-26T22:47:04.902Z,24.70
2019-04-26T22:49:34.995Z,26.57
2019-04-26T22:52:06.336Z,24.93
2019-04-26T22:54:33.486Z,27.30
2019-04-26T22:57:03.795Z,29.40
2019-04-26T22:59:31.817Z,30.00
2019-04-26T23:02:00.034Z,27.27
2019-04-26T23:04:28.249Z,25.40
2019-04-26T23:06:56.621Z,26.97
2019-04-26T23:09:25.012Z,27.43
2019-04-26T23:11:54.940Z,29.20
2019-04-26T23:14:33.900Z,26.77
2019-04-26T23:17:18.735Z,25.50
2019-04-26T23:19:49.441Z,24.00
2019-04-26T23:22:18.472Z,23.40
2019-04-26T23:24:49.255Z,23.67
2019-04-26T23:27:20.562Z,21.33
2019-04-26T23:29:49.809Z,18.20
2019-04-26T23:32:18.490Z,18.60
2019-04-26T23:34:47.225Z,18.07
2019-04-26T23:37:15.509Z,19.93
2019-04-26T23:39:49.287Z,19.90
2019-04-26T23:42:16.450Z,19.17
2019-04-26T23:44:44.090Z,18.87
2019-04-26T23:47:20.640Z,20.00
2019-04-26T23:49:43.392Z,18.70
2019-04-26T23:52:14.573Z,17.43
2019-04-26T23:54:41.629Z,17.53
2019-04-26T23:57:09.933Z,17.03
2019-04-26T23:59:38.156Z,18.00
